createdAt,value
2023-05-09T00:14:56.697Z,58.49
2023-05-09T00:17:24.089Z,58.02
2023-05-09T00:19:51.507Z,57.69
2023-05-09T00:22:18.836Z,58.69
2023-05-09T00:24:45.587Z,57.91
2023-05-09T00:27:12.193Z,58.06
2023-05-09T00:29:38.714Z,57.98
2023-05-09T00:32:05.619Z,57.05
2023-05-09T00:34:32.436Z,57.66
2023-05-09T00:36:59.023Z,57.59
2023-05-09T00:39:25.710Z,57.78
2023-05-09T00:41:52.401Z,57.38
2023-05-09T00:44:18.939Z,57.70
2023-05-09T00:46:45.535Z,58.01
2023-05-09T00:49:12.562Z,57.46
2023-05-09T00:51:40.698Z,57.62
2023-05-09T00:54:12.131Z,58.12
2023-05-09T00:56:39.309Z,58.23
2023-05-09T00:59:06.555Z,58.18
2023-05-09T01:01:33.081Z,58.09
2023-05-09T01:03:59.836Z,58.27
2023-05-09T01:06:39.632Z,58.48
2023-05-09T01:09:30.676Z,58.44
2023-05-09T01:12:23.367Z,58.30
2023-05-09T01:14:58.852Z,58.71
2023-05-09T01:17:50.208Z,59.39
2023-05-09T01:20:35.635Z,59.25
2023-05-09T01:23:21.874Z,59.53
2023-05-09T01:26:06.381Z,59.99
2023-05-09T01:29:06.420Z,60.57
2023-05-09T01:31:38.246Z,60.41
2023-05-09T01:34:07.164Z,60.15
2023-05-09T01:36:36.428Z,61.06
2023-05-09T01:39:04.347Z,61.65
2023-05-09T01:41:32.088Z,61.20
2023-05-09T01:44:02.366Z,61.58
2023-05-09T01:46:32.085Z,61.80
2023-05-09T01:49:01.160Z,61.87
2023-05-09T01:51:29.173Z,61.67
2023-05-09T01:53:57.103Z,61.83
2023-05-09T01:56:25.641Z,62.68
2023-05-09T01:58:53.966Z,62.52
2023-05-09T02:01:21.030Z,63.12
2023-05-09T02:03:52.727Z,63.62
2023-05-09T02:06:21.534Z,63.25
2023-05-09T02:08:49.705Z,64.05
2023-05-09T02:11:16.165Z,63.89
2023-05-09T02:13:42.759Z,64.15
2023-05-09T02:16:10.308Z,64.53
2023-05-09T02:18:37.321Z,64.53
2023-05-09T02:21:04.351Z,65.09
2023-05-09T02:23:31.408Z,65.80
2023-05-09T02:25:58.212Z,65.79
2023-05-09T02:28:27.304Z,65.56
2023-05-09T02:30:57.147Z,65.58
2023-05-09T02:33:24.424Z,65.85
2023-05-09T02:35:51.250Z,65.69
2023-05-09T02:38:19.165Z,65.57
2023-05-09T02:40:47.646Z,65.97
2023-05-09T02:43:15.226Z,66.03
2023-05-09T02:45:42.169Z,65.54
2023-05-09T02:48:09.341Z,65.61
2023-05-09T02:50:38.373Z,65.93
2023-05-09T02:53:05.700Z,66.37
2023-05-09T02:55:32.185Z,65.96
2023-05-09T02:58:12.117Z,65.90
2023-05-09T03:00:39.717Z,66.20
2023-05-09T03:03:06.272Z,66.38
2023-05-09T03:05:32.972Z,66.16
2023-05-09T03:07:59.428Z,66.66
2023-05-09T03:10:25.991Z,66.65
2023-05-09T03:12:52.405Z,66.73
2023-05-09T03:15:19.824Z,67.21
2023-05-09T03:17:46.793Z,66.74
2023-05-09T03:20:14.075Z,67.18
2023-05-09T03:22:40.697Z,67.00
2023-05-09T03:25:07.690Z,66.56
2023-05-09T03:27:34.328Z,67.46
2023-05-09T03:30:00.811Z,67.59
2023-05-09T03:32:31.052Z,67.85
2023-05-09T03:34:57.682Z,68.13
2023-05-09T03:37:28.290Z,68.68
2023-05-09T03:39:55.005Z,68.83
2023-05-09T03:42:22.304Z,69.16
2023-05-09T03:44:48.858Z,69.44
2023-05-09T03:47:15.504Z,69.28
2023-05-09T03:49:41.922Z,69.93
2023-05-09T03:52:08.474Z,69.86
2023-05-09T03:54:35.295Z,70.57
2023-05-09T03:57:10.188Z,69.90
2023-05-09T03:59:36.606Z,70.64
2023-05-09T04:02:03.447Z,70.23
2023-05-09T04:04:29.995Z,70.28
2023-05-09T04:06:56.462Z,69.72
2023-05-09T04:09:22.921Z,69.77
2023-05-09T04:11:49.302Z,69.90
2023-05-09T04:14:15.794Z,68.02
2023-05-09T04:16:42.279Z,67.21
2023-05-09T04:19:08.806Z,66.63
2023-05-09T04:21:35.246Z,65.23
2023-05-09T04:24:01.695Z,64.02
2023-05-09T04:26:28.160Z,63.41
2023-05-09T04:28:54.570Z,61.68
2023-05-09T04:31:26.576Z,61.89
2023-05-09T04:33:53.168Z,61.25
2023-05-09T04:36:19.569Z,60.16
2023-05-09T04:38:46.472Z,58.54
2023-05-09T04:41:12.937Z,56.84
2023-05-09T04:43:39.577Z,57.40
2023-05-09T04:46:06.093Z,59.19
2023-05-09T04:48:32.520Z,60.16
2023-05-09T04:50:58.913Z,61.19
2023-05-09T04:53:26.017Z,61.35
2023-05-09T04:55:53.279Z,63.13
2023-05-09T04:58:20.278Z,63.68
2023-05-09T05:00:46.749Z,63.38
2023-05-09T05:03:13.224Z,64.83
2023-05-09T05:05:41.584Z,64.44
2023-05-09T05:08:08.081Z,64.79
2023-05-09T05:10:34.662Z,63.87
2023-05-09T05:13:01.220Z,61.20
2023-05-09T05:15:27.692Z,58.75
2023-05-09T05:17:54.194Z,56.14
2023-05-09T05:20:21.270Z,53.17
2023-05-09T05:22:47.748Z,52.76
2023-05-09T05:25:14.365Z,52.60
2023-05-09T05:27:40.976Z,53.21
2023-05-09T05:30:08.419Z,54.00
2023-05-09T05:32:34.922Z,55.21
2023-05-09T05:35:02.582Z,57.94
2023-05-09T05:37:29.104Z,56.52
2023-05-09T05:39:55.494Z,58.15
2023-05-09T05:42:22.207Z,59.95
2023-05-09T05:44:48.615Z,60.55
2023-05-09T05:47:15.001Z,62.29
2023-05-09T05:49:41.938Z,61.44
2023-05-09T05:52:08.358Z,62.12
2023-05-09T05:54:34.723Z,61.77
2023-05-09T05:57:01.185Z,61.95
2023-05-09T05:59:27.766Z,63.08
2023-05-09T06:01:54.209Z,61.95
2023-05-09T06:04:21.182Z,58.74
2023-05-09T06:06:48.342Z,56.09
2023-05-09T06:09:14.993Z,50.85
2023-05-09T06:11:44.492Z,49.18
2023-05-09T06:14:11.011Z,47.94
2023-05-09T06:16:37.692Z,47.74
2023-05-09T06:19:04.218Z,46.81
2023-05-09T06:21:31.126Z,43.86
2023-05-09T06:24:11.677Z,45.46
2023-05-09T06:26:43.589Z,45.75
2023-05-09T06:29:10.765Z,46.26
2023-05-09T06:31:38.814Z,43.74
2023-05-09T06:34:06.165Z,44.03
2023-05-09T06:36:33.443Z,44.46
2023-05-09T06:39:00.207Z,45.01
2023-05-09T06:41:26.740Z,46.11
2023-05-09T06:43:53.300Z,43.60
2023-05-09T06:46:19.881Z,41.16
2023-05-09T06:48:46.814Z,40.96
2023-05-09T06:51:13.427Z,42.30
2023-05-09T06:53:39.885Z,41.41
2023-05-09T06:56:06.522Z,40.16
2023-05-09T06:58:33.021Z,41.30
2023-05-09T07:00:59.799Z,39.80
2023-05-09T07:03:26.805Z,40.53
2023-05-09T07:05:53.386Z,41.06
2023-05-09T07:08:19.842Z,37.02
2023-05-09T07:10:46.273Z,37.13
2023-05-09T07:13:13.518Z,38.96
2023-05-09T07:15:42.686Z,38.76
2023-05-09T07:18:09.822Z,37.63
2023-05-09T07:20:36.553Z,37.88
2023-05-09T07:23:06.204Z,38.38
2023-05-09T07:25:32.742Z,38.35
2023-05-09T07:27:59.355Z,34.76
2023-05-09T07:30:26.078Z,34.83
2023-05-09T07:32:52.951Z,37.44
2023-05-09T07:35:20.373Z,38.75
2023-05-09T07:37:46.862Z,38.78
2023-05-09T07:40:14.047Z,37.71
2023-05-09T07:42:40.792Z,38.41
2023-05-09T07:45:07.624Z,37.57
2023-05-09T07:47:34.097Z,38.72
2023-05-09T07:50:00.695Z,40.23
2023-05-09T07:52:27.123Z,39.39
2023-05-09T07:54:54.603Z,37.37
2023-05-09T07:57:21.829Z,36.41
2023-05-09T07:59:48.410Z,34.93
2023-05-09T08:02:14.967Z,35.74
2023-05-09T08:04:41.910Z,36.69
2023-05-09T08:07:09.077Z,37.56
2023-05-09T08:09:35.716Z,36.15
2023-05-09T08:12:02.244Z,37.09
2023-05-09T08:14:28.757Z,36.68
2023-05-09T08:16:55.207Z,37.43
2023-05-09T08:19:26.394Z,36.83
2023-05-09T08:21:53.367Z,37.73
2023-05-09T08:24:20.443Z,37.14
2023-05-09T08:26:47.059Z,36.64
2023-05-09T08:29:13.521Z,36.58
2023-05-09T08:31:40.120Z,35.86
2023-05-09T08:34:06.638Z,36.64
2023-05-09T08:36:33.889Z,37.58
2023-05-09T08:39:00.468Z,36.63
2023-05-09T08:41:30.165Z,36.20
2023-05-09T08:43:56.680Z,36.29
2023-05-09T08:46:43.672Z,36.37
2023-05-09T08:49:10.727Z,36.87
2023-05-09T08:51:41.514Z,38.07
2023-05-09T08:54:08.390Z,37.92
2023-05-09T08:56:35.283Z,37.90
2023-05-09T08:59:01.793Z,38.27
2023-05-09T09:01:29.584Z,37.66
2023-05-09T09:03:56.776Z,38.91
2023-05-09T09:06:25.730Z,39.09
2023-05-09T09:08:55.444Z,38.55
2023-05-09T09:11:22.689Z,39.68
2023-05-09T09:13:52.949Z,38.44
2023-05-09T09:16:21.463Z,39.93
2023-05-09T09:18:51.665Z,39.16
2023-05-09T09:21:19.680Z,38.93
2023-05-09T09:23:47.641Z,37.11
2023-05-09T09:26:14.274Z,37.40
2023-05-09T09:28:42.055Z,38.69
2023-05-09T09:31:25.998Z,38.82
2023-05-09T09:33:52.632Z,38.19
2023-05-09T09:36:29.832Z,37.77
2023-05-09T09:38:59.049Z,37.75
2023-05-09T09:41:36.818Z,36.91
2023-05-09T09:44:17.252Z,36.74
2023-05-09T09:46:55.192Z,35.97
2023-05-09T09:49:23.954Z,36.64
2023-05-09T09:51:55.930Z,36.02
2023-05-09T09:54:23.218Z,35.13
2023-05-09T09:56:57.707Z,34.97
2023-05-09T09:59:26.590Z,36.22
2023-05-09T10:01:57.626Z,33.74
2023-05-09T10:04:25.629Z,34.62
2023-05-09T10:06:56.212Z,34.57
2023-05-09T10:09:29.528Z,35.51
2023-05-09T10:11:57.137Z,32.67
2023-05-09T10:14:25.412Z,33.54
2023-05-09T10:16:56.771Z,33.48
2023-05-09T10:19:26.365Z,33.94
2023-05-09T10:22:29.321Z,32.60
2023-05-09T10:28:18.712Z,35.32
2023-05-09T10:31:17.330Z,35.09
2023-05-09T10:33:48.197Z,34.58
2023-05-09T10:36:50.650Z,32.20
2023-05-09T10:39:33.531Z,33.17
2023-05-09T10:42:00.787Z,32.29
2023-05-09T10:47:35.819Z,33.70
2023-05-09T10:50:05.418Z,34.20
2023-05-09T10:52:33.644Z,32.85
2023-05-09T10:55:13.365Z,32.29
2023-05-09T10:57:39.922Z,32.62
2023-05-09T11:00:07.515Z,31.01
2023-05-09T11:02:39.273Z,30.97
2023-05-09T11:05:17.431Z,29.90
2023-05-09T11:08:33.531Z,30.83
2023-05-09T11:11:07.391Z,31.40
2023-05-09T11:13:53.706Z,30.63
2023-05-09T11:16:20.265Z,30.50
2023-05-09T11:18:52.488Z,30.36
2023-05-09T11:21:20.500Z,30.99
2023-05-09T11:24:14.020Z,28.79
2023-05-09T11:26:48.177Z,29.54
2023-05-09T11:29:50.512Z,29.79
2023-05-09T11:35:23.267Z,29.17
2023-05-09T11:38:00.375Z,28.93
2023-05-09T11:40:28.086Z,27.38
2023-05-09T11:42:58.332Z,27.73
2023-05-09T11:45:39.564Z,27.96
2023-05-09T11:48:09.449Z,27.72
2023-05-09T11:50:48.191Z,29.15
2023-05-09T11:53:29.304Z,28.27
2023-05-09T11:56:03.072Z,27.39
2023-05-09T11:58:29.669Z,27.08
2023-05-09T12:00:57.493Z,27.15
2023-05-09T12:03:41.073Z,26.23
2023-05-09T12:06:25.199Z,27.41
2023-05-09T12:09:01.042Z,26.93
2023-05-09T12:11:32.220Z,26.67
2023-05-09T12:13:58.751Z,26.19
2023-05-09T12:16:25.412Z,27.24
2023-05-09T12:18:54.268Z,25.99
2023-05-09T12:21:21.738Z,26.19
2023-05-09T12:23:50.967Z,27.28
2023-05-09T12:26:18.933Z,25.96
2023-05-09T12:28:45.671Z,26.25
2023-05-09T12:31:12.978Z,25.87
2023-05-09T12:33:39.824Z,27.29
2023-05-09T12:36:11.636Z,26.31
2023-05-09T12:38:38.862Z,25.97
2023-05-09T12:41:18.898Z,26.66
2023-05-09T12:43:56.530Z,25.43
2023-05-09T12:46:23.162Z,25.56
2023-05-09T12:48:49.864Z,28.01
2023-05-09T12:51:20.750Z,25.94
2023-05-09T12:53:47.780Z,27.12
2023-05-09T12:56:16.439Z,28.37
2023-05-09T12:58:53.888Z,27.41
2023-05-09T13:01:22.379Z,29.44
2023-05-09T13:04:07.609Z,27.08
2023-05-09T13:06:35.675Z,26.57
2023-05-09T13:09:06.106Z,26.74
2023-05-09T13:11:32.711Z,26.95
2023-05-09T13:13:59.275Z,25.22
2023-05-09T13:16:25.755Z,24.82
2023-05-09T13:18:52.183Z,24.67
2023-05-09T13:21:20.060Z,24.25
2023-05-09T13:23:46.488Z,24.85
2023-05-09T13:26:12.946Z,25.28
2023-05-09T13:28:39.387Z,24.95
2023-05-09T13:31:06.890Z,23.84
2023-05-09T13:33:33.546Z,25.03
2023-05-09T13:36:00.069Z,23.33
2023-05-09T13:38:26.985Z,22.92
2023-05-09T13:40:53.443Z,21.95
2023-05-09T13:43:19.884Z,22.82
2023-05-09T13:45:46.389Z,23.20
2023-05-09T13:48:12.981Z,21.47
2023-05-09T13:50:39.494Z,24.48
2023-05-09T13:53:05.931Z,24.52
2023-05-09T13:55:32.681Z,23.64
2023-05-09T13:57:59.129Z,23.57
2023-05-09T14:00:26.548Z,23.31
2023-05-09T14:02:53.049Z,23.09
2023-05-09T14:05:19.754Z,23.76
2023-05-09T14:07:46.243Z,21.51
2023-05-09T14:10:12.925Z,22.41
2023-05-09T14:12:42.439Z,22.49
2023-05-09T14:15:11.175Z,22.83
2023-05-09T14:17:37.903Z,23.21
2023-05-09T14:20:04.707Z,23.28
2023-05-09T14:22:31.153Z,24.33
2023-05-09T14:24:57.712Z,22.79
2023-05-09T14:27:25.131Z,22.75
2023-05-09T14:29:51.855Z,22.19
2023-05-09T14:32:18.313Z,22.03
2023-05-09T14:34:45.555Z,24.32
2023-05-09T14:37:14.842Z,23.64
2023-05-09T14:39:45.126Z,22.79
2023-05-09T14:42:14.105Z,22.94
2023-05-09T14:44:41.777Z,22.78
2023-05-09T14:47:09.565Z,22.60
2023-05-09T14:49:37.277Z,22.46
2023-05-09T14:52:03.842Z,23.80
2023-05-09T14:54:30.394Z,23.29
2023-05-09T14:56:57.496Z,23.52
2023-05-09T14:59:24.117Z,24.63
2023-05-09T15:01:51.725Z,23.29
2023-05-09T15:04:18.288Z,24.14
2023-05-09T15:06:45.858Z,25.05
2023-05-09T15:09:13.004Z,24.24
2023-05-09T15:11:47.825Z,24.82
2023-05-09T15:14:16.358Z,24.71
2023-05-09T15:16:42.985Z,24.92
2023-05-09T15:19:09.486Z,25.05
2023-05-09T15:21:35.949Z,25.78
2023-05-09T15:24:03.267Z,26.13
2023-05-09T15:26:30.158Z,25.98
2023-05-09T15:28:56.623Z,25.56
2023-05-09T15:31:24.062Z,26.28
2023-05-09T15:33:50.889Z,26.44
2023-05-09T15:36:17.389Z,26.68
2023-05-09T15:38:48.320Z,27.19
2023-05-09T15:41:15.388Z,27.29
2023-05-09T15:43:42.101Z,27.30
2023-05-09T15:46:08.562Z,27.91
2023-05-09T15:48:35.043Z,28.13
2023-05-09T15:51:02.690Z,27.85
2023-05-09T15:53:29.389Z,27.23
2023-05-09T15:55:56.900Z,27.95
2023-05-09T15:58:23.523Z,27.32
2023-05-09T16:00:50.162Z,27.61
2023-05-09T16:03:16.856Z,27.97
2023-05-09T16:05:43.802Z,27.76
2023-05-09T16:08:10.376Z,27.88
2023-05-09T16:10:36.780Z,28.23
2023-05-09T16:13:03.554Z,28.21
2023-05-09T16:15:30.002Z,28.82
2023-05-09T16:17:56.429Z,28.67
2023-05-09T16:20:23.047Z,28.75
2023-05-09T16:22:49.518Z,29.28
2023-05-09T16:25:16.780Z,29.96
2023-05-09T16:27:43.509Z,29.89
2023-05-09T16:30:10.478Z,29.55
2023-05-09T16:32:36.967Z,30.12
2023-05-09T16:35:04.147Z,30.17
2023-05-09T16:37:30.900Z,31.28
2023-05-09T16:39:59.288Z,31.08
2023-05-09T16:42:25.945Z,30.24
2023-05-09T16:44:52.577Z,31.10
2023-05-09T16:47:19.046Z,30.76
2023-05-09T16:49:45.947Z,31.03
2023-05-09T16:52:12.439Z,31.40
2023-05-09T16:54:38.880Z,31.43
2023-05-09T16:57:05.628Z,31.70
2023-05-09T16:59:33.151Z,31.54
2023-05-09T17:01:59.623Z,32.43
2023-05-09T17:04:26.568Z,32.34
2023-05-09T17:06:53.285Z,33.08
2023-05-09T17:09:19.829Z,33.07
2023-05-09T17:11:46.393Z,32.80
2023-05-09T17:14:12.777Z,33.52
2023-05-09T17:16:39.246Z,33.37
2023-05-09T17:19:05.729Z,33.35
2023-05-09T17:21:32.301Z,33.10
2023-05-09T17:23:58.734Z,33.36
2023-05-09T17:26:25.955Z,33.20
2023-05-09T17:28:52.480Z,33.65
2023-05-09T17:31:19.035Z,33.67
2023-05-09T17:33:45.472Z,33.84
2023-05-09T17:36:11.863Z,34.17
2023-05-09T17:38:38.370Z,33.62
2023-05-09T17:41:04.885Z,33.91
2023-05-09T17:43:31.921Z,34.08
2023-05-09T17:45:58.950Z,34.76
2023-05-09T17:48:25.637Z,35.10
2023-05-09T17:50:52.658Z,33.96
2023-05-09T17:53:19.121Z,34.11
2023-05-09T17:55:45.613Z,34.28
2023-05-09T17:58:12.125Z,33.97
2023-05-09T18:00:38.628Z,34.89
2023-05-09T18:03:05.323Z,34.35
2023-05-09T18:05:31.949Z,34.91
2023-05-09T18:08:00.810Z,35.11
2023-05-09T18:10:28.686Z,34.41
2023-05-09T18:12:55.603Z,34.68
2023-05-09T18:15:24.623Z,35.16
2023-05-09T18:17:51.376Z,35.44
2023-05-09T18:20:21.230Z,35.26
2023-05-09T18:22:47.734Z,35.96
2023-05-09T18:25:14.387Z,36.36
2023-05-09T18:27:40.985Z,37.33
2023-05-09T18:30:08.220Z,38.65
2023-05-09T18:32:53.856Z,39.68
2023-05-09T19:09:22.122Z,43.97
2023-05-09T20:12:26.360Z,50.27
2023-05-09T20:15:24.852Z,51.35
2023-05-09T20:21:03.423Z,52.69
2023-05-09T20:23:36.817Z,53.14
2023-05-09T20:29:53.186Z,53.45
2023-05-09T20:32:20.096Z,53.62
2023-05-09T20:34:53.279Z,52.93
2023-05-09T20:37:21.172Z,53.16
2023-05-09T20:39:47.772Z,53.58
2023-05-09T21:13:49.052Z,51.85
2023-05-09T21:26:20.036Z,51.17
2023-05-09T21:28:48.088Z,50.84
2023-05-09T21:31:17.949Z,51.08
2023-05-09T21:37:38.500Z,50.72
2023-05-09T21:40:18.813Z,50.97
2023-05-09T21:50:58.567Z,50.40
2023-05-09T21:53:33.506Z,50.29
2023-05-09T22:02:28.215Z,52.48
